Bellevue, Nebraska
Current Conditions -  °F | °C
As of 5:39 PM on Saturday 22 Nov 2014 (Local Time) from KOFF Reporting Station
Overcast Overcast  
Wind Chill: 54°   Ceiling: 800
Heat Index: 54°   Visibility: 10mi
Dew Point: 50°   Wind: 10mph
Humidity: 88%   Direction: 140°SE
Pressure: 29.62"   Gusts: NA
Location:  41.14°N, 95.89°W
Report Text: KOFF 222339Z AUTO 14009KT 10SM BKN008 OVC012 12/10 A2962 RMK AO2 CIG 008V010
Loading
Personal Weather Stations






























Interactive Weather Map New forecast layout! Learn more

10-Day Weather Forecast

Advertisements
Track Severe Weather on mobile